Time;durP1;ratioP1;P1;durP2;ratioP2;P2;SDS_P1;SDS_P2;PMS_P1;PMS_P2;Temp;Humidity;BMP_temperature;BMP_pressure;BME280_temperature;BME280_humidity;BME280_pressure;Samples;Min_cycle;Max_cycle;Signal;HPM_P1;HPM_P2
2021/03/30 00:00:18;;;;;;;19.80;6.72;;;;;;;;;;5026636;28;20052;-67
2021/03/30 00:02:44;;;;;;;16.70;6.72;;;;;;;;;;5023448;28;20048;-65
2021/03/30 00:05:12;;;;;;;18.08;6.60;;;;;;;;;;5033716;28;20057;-66
2021/03/30 00:07:38;;;;;;;14.45;5.93;;;;;;;;;;5051187;28;20052;-59
2021/03/30 00:10:05;;;;;;;15.45;6.47;;;;;;;;;;5081875;28;20045;-60
2021/03/30 00:12:31;;;;;;;15.75;6.82;;;;;;;;;;5058951;28;20053;-61
2021/03/30 00:14:58;;;;;;;14.43;5.95;;;;;;;;;;5080178;28;20052;-62
2021/03/30 00:17:24;;;;;;;13.80;6.47;;;;;;;;;;5076345;28;20037;-59
2021/03/30 00:19:51;;;;;;;17.98;7.13;;;;;;;;;;5080153;28;20040;-62
2021/03/30 00:22:17;;;;;;;16.75;6.72;;;;;;;;;;5063396;28;20110;-60
2021/03/30 00:24:43;;;;;;;17.13;6.95;;;;;;;;;;5053590;28;20053;-60
2021/03/30 00:27:09;;;;;;;18.50;7.30;;;;;;;;;;5042708;28;20036;-61
2021/03/30 00:29:43;;;;;;;17.48;6.80;;;;;;;;;;5055552;28;20060;-59
2021/03/30 00:32:09;;;;;;;19.33;7.30;;;;;;;;;;5080539;28;20036;-60
2021/03/30 00:34:35;;;;;;;17.58;6.82;;;;;;;;;;5059914;28;20048;-64
2021/03/30 00:37:02;;;;;;;20.17;7.85;;;;;;;;;;5062844;28;20044;-59
2021/03/30 00:39:28;;;;;;;14.77;6.53;;;;;;;;;;5062198;28;20052;-61
2021/03/30 00:41:54;;;;;;;19.67;7.20;;;;;;;;;;5081550;28;20064;-60
2021/03/30 00:44:20;;;;;;;18.88;7.22;;;;;;;;;;5060662;28;20032;-59
2021/03/30 00:46:46;;;;;;;15.23;6.72;;;;;;;;;;5044232;28;20110;-61
2021/03/30 00:49:14;;;;;;;18.90;6.88;;;;;;;;;;5045883;28;20151;-59
2021/03/30 00:51:40;;;;;;;14.40;6.85;;;;;;;;;;5066680;28;20032;-59
2021/03/30 00:54:13;;;;;;;14.77;6.97;;;;;;;;;;5061428;28;20033;-59
2021/03/30 00:56:42;;;;;;;16.90;6.68;;;;;;;;;;5065491;28;20040;-60
2021/03/30 00:59:08;;;;;;;17.00;7.30;;;;;;;;;;5076862;28;20044;-65
2021/03/30 01:01:34;;;;;;;17.00;6.60;;;;;;;;;;5066626;28;20037;-65
2021/03/30 01:04:00;;;;;;;16.35;6.93;;;;;;;;;;5082221;28;20039;-66
2021/03/30 01:06:26;;;;;;;15.07;6.82;;;;;;;;;;5036525;28;20053;-63
2021/03/30 01:08:58;;;;;;;16.85;6.85;;;;;;;;;;5024201;28;20053;-65
2021/03/30 01:11:32;;;;;;;16.02;7.05;;;;;;;;;;5056246;28;20043;-66
2021/03/30 01:14:10;;;;;;;18.23;7.32;;;;;;;;;;5065082;28;20037;-65
2021/03/30 01:16:38;;;;;;;15.73;6.72;;;;;;;;;;5056030;28;20036;-60
2021/03/30 01:19:09;;;;;;;16.02;6.80;;;;;;;;;;5081420;28;20033;-63
2021/03/30 01:22:03;;;;;;;14.35;6.40;;;;;;;;;;5077949;28;20037;-63
2021/03/30 01:24:35;;;;;;;11.25;5.88;;;;;;;;;;5079157;28;20037;-61
2021/03/30 01:27:03;;;;;;;15.52;6.72;;;;;;;;;;5023537;28;20062;-60
2021/03/30 01:29:39;;;;;;;15.27;7.15;;;;;;;;;;5058819;28;20049;-62
2021/03/30 01:32:07;;;;;;;18.80;7.00;;;;;;;;;;5072793;28;20081;-61
2021/03/30 01:34:52;;;;;;;15.03;6.30;;;;;;;;;;5065879;28;20048;-62
2021/03/30 01:37:20;;;;;;;14.90;6.43;;;;;;;;;;5045118;28;20359;-58
2021/03/30 01:39:48;;;;;;;18.65;6.78;;;;;;;;;;5045278;28;20065;-60
2021/03/30 01:42:14;;;;;;;20.38;7.70;;;;;;;;;;5040094;28;20037;-64
2021/03/30 01:44:41;;;;;;;16.10;7.22;;;;;;;;;;5044189;28;20140;-60
2021/03/30 01:47:07;;;;;;;20.90;6.57;;;;;;;;;;5040041;28;20045;-59
2021/03/30 01:49:34;;;;;;;14.68;6.10;;;;;;;;;;5060629;28;20041;-61
2021/03/30 01:52:00;;;;;;;16.92;7.85;;;;;;;;;;5051342;28;20030;-61
2021/03/30 01:54:28;;;;;;;17.77;7.15;;;;;;;;;;5043890;28;20123;-61
2021/03/30 01:56:56;;;;;;;16.63;6.95;;;;;;;;;;5040860;28;20323;-59
2021/03/30 01:59:22;;;;;;;15.65;6.90;;;;;;;;;;5044131;28;20025;-61
2021/03/30 02:01:50;;;;;;;13.35;6.70;;;;;;;;;;5048248;28;20040;-60
2021/03/30 02:04:16;;;;;;;22.92;6.75;;;;;;;;;;5044686;28;20044;-62
2021/03/30 02:06:44;;;;;;;17.88;7.07;;;;;;;;;;5039851;28;20033;-61
2021/03/30 02:09:15;;;;;;;23.88;7.68;;;;;;;;;;5027919;28;20033;-59
2021/03/30 02:11:43;;;;;;;14.50;6.57;;;;;;;;;;5041945;28;20040;-64
2021/03/30 02:14:13;;;;;;;16.73;6.87;;;;;;;;;;5044593;28;20042;-61
2021/03/30 02:16:44;;;;;;;17.55;6.68;;;;;;;;;;5044531;28;20033;-60
2021/03/30 02:19:13;;;;;;;15.77;7.25;;;;;;;;;;5041732;28;20044;-60
2021/03/30 02:21:42;;;;;;;16.50;6.43;;;;;;;;;;5043962;28;20050;-63
2021/03/30 02:24:10;;;;;;;22.88;7.72;;;;;;;;;;5054523;28;20037;-60
2021/03/30 02:26:37;;;;;;;15.10;6.88;;;;;;;;;;5042777;28;20041;-60
2021/03/30 02:29:06;;;;;;;14.77;6.22;;;;;;;;;;5053420;28;20040;-63
2021/03/30 02:31:32;;;;;;;21.98;7.22;;;;;;;;;;5061478;28;20044;-64
2021/03/30 02:34:01;;;;;;;20.63;7.03;;;;;;;;;;5056669;28;20052;-63
2021/03/30 02:36:28;;;;;;;15.80;6.30;;;;;;;;;;5061557;28;20044;-61
2021/03/30 02:38:56;;;;;;;15.50;6.57;;;;;;;;;;5050360;28;20052;-61
2021/03/30 02:41:22;;;;;;;18.10;6.77;;;;;;;;;;5057451;28;20048;-62
2021/03/30 02:43:49;;;;;;;18.40;6.63;;;;;;;;;;5044732;28;20059;-63
2021/03/30 02:46:15;;;;;;;23.08;7.85;;;;;;;;;;5063903;28;20048;-63
2021/03/30 02:48:42;;;;;;;19.02;7.10;;;;;;;;;;5058486;28;20089;-63
2021/03/30 02:51:08;;;;;;;15.57;6.70;;;;;;;;;;5047610;28;20052;-64
2021/03/30 02:53:36;;;;;;;16.48;6.60;;;;;;;;;;5044570;28;20033;-62
2021/03/30 02:56:04;;;;;;;18.10;6.90;;;;;;;;;;5064728;28;20032;-64
2021/03/30 02:58:31;;;;;;;15.13;6.55;;;;;;;;;;5046095;28;20118;-64
2021/03/30 03:00:58;;;;;;;17.17;6.75;;;;;;;;;;5044863;28;20037;-60
2021/03/30 03:03:37;;;;;;;17.42;6.45;;;;;;;;;;5046335;28;20033;-60
2021/03/30 03:06:04;;;;;;;19.33;7.30;;;;;;;;;;5043523;28;20067;-58
2021/03/30 03:08:31;;;;;;;17.02;6.68;;;;;;;;;;5047042;28;20106;-59
2021/03/30 03:10:59;;;;;;;15.77;6.93;;;;;;;;;;5056334;28;20044;-59
2021/03/30 03:13:25;;;;;;;19.30;7.18;;;;;;;;;;5046635;28;20033;-60
2021/03/30 03:15:51;;;;;;;16.73;6.82;;;;;;;;;;5061669;28;20041;-58
2021/03/30 03:18:19;;;;;;;21.55;7.88;;;;;;;;;;5047358;28;20048;-61
2021/03/30 03:20:45;;;;;;;25.65;8.18;;;;;;;;;;5042908;28;20108;-60
2021/03/30 03:23:22;;;;;;;17.35;7.40;;;;;;;;;;5046136;28;20049;-62
2021/03/30 03:25:48;;;;;;;19.20;7.03;;;;;;;;;;5045762;28;20078;-58
2021/03/30 03:28:15;;;;;;;23.60;8.52;;;;;;;;;;5063667;28;20114;-59
2021/03/30 03:30:42;;;;;;;20.88;7.90;;;;;;;;;;5043582;28;20025;-60
2021/03/30 03:33:09;;;;;;;18.58;7.35;;;;;;;;;;5046385;28;20037;-60
2021/03/30 03:35:35;;;;;;;17.58;7.35;;;;;;;;;;5042221;28;20062;-59
2021/03/30 03:38:01;;;;;;;19.05;7.63;;;;;;;;;;5079346;28;20090;-58
2021/03/30 03:40:28;;;;;;;16.90;6.95;;;;;;;;;;5060899;28;20151;-57
2021/03/30 03:42:54;;;;;;;21.10;7.87;;;;;;;;;;5045597;28;20122;-59
2021/03/30 03:45:21;;;;;;;19.15;7.70;;;;;;;;;;5054007;28;20072;-58
2021/03/30 03:47:47;;;;;;;19.08;7.57;;;;;;;;;;5045256;28;20048;-59
2021/03/30 03:50:13;;;;;;;23.27;7.97;;;;;;;;;;5046082;28;20037;-59
2021/03/30 03:52:42;;;;;;;17.35;7.15;;;;;;;;;;5044385;28;20052;-59
2021/03/30 03:55:20;;;;;;;16.48;6.90;;;;;;;;;;5044462;28;20049;-58
2021/03/30 03:57:46;;;;;;;;;;;;;;;;;;5060454;28;20095;-60
2021/03/30 04:00:13;;;;;;;17.33;6.82;;;;;;;;;;5041792;28;19929;-61
2021/03/30 04:02:44;;;;;;;19.60;7.55;;;;;;;;;;5059441;28;20076;-59
2021/03/30 04:05:15;;;;;;;17.95;7.53;;;;;;;;;;5066127;28;20037;-61
2021/03/30 04:07:44;;;;;;;20.90;7.82;;;;;;;;;;5053843;28;20049;-60
2021/03/30 04:10:11;;;;;;;20.27;7.78;;;;;;;;;;5049343;28;20025;-60
2021/03/30 04:12:39;;;;;;;22.30;8.32;;;;;;;;;;5056843;28;20047;-61
2021/03/30 04:15:08;;;;;;;20.15;7.45;;;;;;;;;;5069208;28;20043;-61
2021/03/30 04:17:34;;;;;;;19.70;7.65;;;;;;;;;;5063592;28;20025;-62
2021/03/30 04:20:04;;;;;;;19.92;7.25;;;;;;;;;;5086676;28;20056;-63
2021/03/30 04:22:30;;;;;;;23.23;8.30;;;;;;;;;;5064197;28;20072;-61
2021/03/30 04:24:56;;;;;;;21.25;7.50;;;;;;;;;;5080286;28;20104;-59
2021/03/30 04:27:22;;;;;;;21.42;8.20;;;;;;;;;;5042549;28;20106;-61
2021/03/30 04:29:48;;;;;;;20.05;7.47;;;;;;;;;;5064207;28;20053;-62
2021/03/30 04:32:14;;;;;;;23.90;8.18;;;;;;;;;;5062266;28;20044;-61
2021/03/30 04:34:42;;;;;;;20.95;7.78;;;;;;;;;;5064140;28;20033;-61
2021/03/30 04:37:09;;;;;;;22.58;8.77;;;;;;;;;;5065872;28;20036;-64
2021/03/30 04:39:35;;;;;;;23.52;7.82;;;;;;;;;;5060239;28;20049;-62
2021/03/30 04:42:01;;;;;;;20.15;8.00;;;;;;;;;;5080112;28;20061;-63
2021/03/30 04:44:28;;;;;;;20.77;8.30;;;;;;;;;;5075056;28;20054;-60
2021/03/30 04:46:54;;;;;;;21.58;8.90;;;;;;;;;;5062993;28;20047;-60
2021/03/30 04:49:19;;;;;;;20.42;8.48;;;;;;;;;;5063961;28;20045;-61
2021/03/30 04:51:45;;;;;;;22.50;8.55;;;;;;;;;;5080814;28;20123;-60
2021/03/30 04:54:14;;;;;;;25.83;8.77;;;;;;;;;;5078658;28;20051;-59
2021/03/30 04:56:40;;;;;;;26.98;8.38;;;;;;;;;;5065893;28;20045;-65
2021/03/30 04:59:06;;;;;;;23.80;9.05;;;;;;;;;;5079455;28;20061;-58
2021/03/30 05:01:32;;;;;;;22.77;8.73;;;;;;;;;;5063874;28;20056;-61
2021/03/30 05:04:05;;;;;;;26.98;8.60;;;;;;;;;;5058677;28;20040;-59
2021/03/30 05:06:34;;;;;;;21.30;7.97;;;;;;;;;;5044035;28;20037;-60
2021/03/30 05:08:59;;;;;;;22.13;8.77;;;;;;;;;;5026515;28;20064;-61
2021/03/30 05:11:26;;;;;;;23.25;9.25;;;;;;;;;;5028650;28;20041;-58
2021/03/30 05:13:55;;;;;;;39.05;13.43;;;;;;;;;;5029537;28;20097;-61
2021/03/30 05:16:21;;;;;;;31.80;10.50;;;;;;;;;;5058651;28;20047;-59
2021/03/30 05:18:46;;;;;;;27.50;10.38;;;;;;;;;;5067091;28;20029;-62
2021/03/30 05:21:13;;;;;;;31.98;11.43;;;;;;;;;;5064866;28;20071;-60
2021/03/30 05:23:41;;;;;;;25.23;10.50;;;;;;;;;;5084944;28;20040;-59
2021/03/30 05:26:07;;;;;;;26.00;9.52;;;;;;;;;;5063222;28;20086;-62
2021/03/30 05:28:34;;;;;;;24.65;9.40;;;;;;;;;;5065417;28;20060;-60
2021/03/30 05:31:01;;;;;;;24.30;9.23;;;;;;;;;;5062662;28;20039;-60
2021/03/30 05:33:37;;;;;;;28.88;9.13;;;;;;;;;;5063407;28;20061;-63
2021/03/30 05:36:03;;;;;;;27.77;8.45;;;;;;;;;;5063965;28;20169;-58
2021/03/30 05:38:29;;;;;;;22.42;9.40;;;;;;;;;;5063371;28;20051;-63
2021/03/30 05:40:56;;;;;;;20.17;7.80;;;;;;;;;;5058250;28;20033;-63
2021/03/30 05:43:24;;;;;;;21.42;8.55;;;;;;;;;;5058110;28;20028;-59
2021/03/30 05:45:51;;;;;;;22.40;8.85;;;;;;;;;;5064376;28;20056;-60
2021/03/30 05:48:18;;;;;;;29.00;9.05;;;;;;;;;;5062837;28;20133;-61
2021/03/30 05:50:44;;;;;;;29.05;9.75;;;;;;;;;;5055972;28;20094;-60
2021/03/30 05:53:11;;;;;;;25.73;8.40;;;;;;;;;;5059529;28;20068;-59
2021/03/30 05:55:37;;;;;;;25.17;9.13;;;;;;;;;;5079656;28;20049;-62
2021/03/30 05:58:04;;;;;;;28.67;9.38;;;;;;;;;;5064224;28;20037;-63
2021/03/30 06:00:31;;;;;;;32.58;9.82;;;;;;;;;;5058870;28;20033;-62
2021/03/30 06:03:03;;;;;;;20.70;8.20;;;;;;;;;;5064216;28;20150;-59
2021/03/30 06:05:29;;;;;;;26.63;9.30;;;;;;;;;;5082699;28;20067;-62
2021/03/30 06:07:57;;;;;;;25.70;9.38;;;;;;;;;;5055877;28;20125;-59
2021/03/30 06:10:26;;;;;;;29.15;10.35;;;;;;;;;;5066806;28;20141;-59
2021/03/30 06:12:52;;;;;;;22.73;8.93;;;;;;;;;;5062843;28;20039;-61
2021/03/30 06:15:18;;;;;;;24.88;9.43;;;;;;;;;;5066721;28;20029;-61
2021/03/30 06:17:45;;;;;;;24.73;9.38;;;;;;;;;;5063102;28;20032;-62
2021/03/30 06:20:13;;;;;;;27.45;10.30;;;;;;;;;;5064827;28;20036;-63
2021/03/30 06:22:47;;;;;;;41.27;15.27;;;;;;;;;;5049599;28;20106;-62
2021/03/30 06:25:13;;;;;;;40.45;13.75;;;;;;;;;;5045524;28;20072;-60
2021/03/30 06:27:39;;;;;;;37.75;13.57;;;;;;;;;;5049515;28;20040;-60
2021/03/30 06:30:05;;;;;;;27.48;9.85;;;;;;;;;;5026685;28;20048;-59
2021/03/30 06:32:32;;;;;;;26.27;10.13;;;;;;;;;;5047689;28;20044;-59
2021/03/30 06:35:10;;;;;;;33.78;9.77;;;;;;;;;;5047449;28;20052;-61
2021/03/30 06:37:38;;;;;;;25.17;9.27;;;;;;;;;;5063085;28;20051;-60
2021/03/30 06:40:09;;;;;;;26.88;9.55;;;;;;;;;;5047463;28;20044;-58
2021/03/30 06:42:40;;;;;;;27.65;10.27;;;;;;;;;;5041363;28;20039;-63
2021/03/30 06:45:26;;;;;;;47.67;9.73;;;;;;;;;;5038805;28;20033;-60
2021/03/30 06:47:54;;;;;;;35.63;9.13;;;;;;;;;;5042116;28;20118;-64
2021/03/30 06:50:23;;;;;;;32.40;11.20;;;;;;;;;;5080676;28;20033;-62
2021/03/30 06:52:50;;;;;;;27.98;9.48;;;;;;;;;;5061430;28;20033;-59
2021/03/30 06:55:23;;;;;;;30.75;10.52;;;;;;;;;;5061988;28;20165;-62
2021/03/30 06:57:50;;;;;;;30.27;10.13;;;;;;;;;;5061503;28;20045;-59
2021/03/30 07:00:19;;;;;;;32.17;10.05;;;;;;;;;;5062186;28;20040;-60
2021/03/30 07:02:46;;;;;;;26.35;9.27;;;;;;;;;;5063452;28;20040;-61
2021/03/30 07:05:23;;;;;;;33.45;11.35;;;;;;;;;;5077438;28;20047;-62
2021/03/30 07:07:52;;;;;;;38.22;11.63;;;;;;;;;;5067023;28;20033;-63
2021/03/30 07:10:19;;;;;;;29.55;10.13;;;;;;;;;;5059201;28;20073;-62
2021/03/30 07:12:52;;;;;;;32.80;9.55;;;;;;;;;;5062813;28;20067;-63
2021/03/30 07:15:20;;;;;;;35.30;10.88;;;;;;;;;;5059277;28;20029;-63
2021/03/30 07:17:49;;;;;;;29.60;10.60;;;;;;;;;;5046229;28;20029;-62
2021/03/30 07:20:16;;;;;;;36.92;10.52;;;;;;;;;;5055787;28;20044;-62
2021/03/30 07:22:44;;;;;;;36.03;12.15;;;;;;;;;;5065649;28;20059;-61
2021/03/30 07:25:13;;;;;;;38.40;12.00;;;;;;;;;;5063584;28;20041;-63
2021/03/30 07:27:44;;;;;;;33.42;10.65;;;;;;;;;;5064320;28;20072;-63
2021/03/30 07:30:12;;;;;;;36.97;11.05;;;;;;;;;;5062768;28;20039;-64
2021/03/30 07:32:42;;;;;;;32.67;11.02;;;;;;;;;;5081898;28;20035;-61
2021/03/30 07:35:14;;;;;;;32.75;11.50;;;;;;;;;;5063398;28;20045;-58
2021/03/30 07:37:42;;;;;;;34.83;11.13;;;;;;;;;;5068509;28;20043;-61
2021/03/30 07:40:10;;;;;;;40.55;12.13;;;;;;;;;;5066175;28;20033;-58
2021/03/30 07:42:39;;;;;;;30.70;10.68;;;;;;;;;;5050761;28;20122;-61
2021/03/30 07:45:07;;;;;;;31.27;10.98;;;;;;;;;;5052617;28;20047;-63
2021/03/30 07:47:33;;;;;;;30.88;10.77;;;;;;;;;;5085003;28;20044;-61
2021/03/30 07:50:00;;;;;;;30.33;11.77;;;;;;;;;;5063840;28;20032;-61
2021/03/30 07:52:28;;;;;;;33.53;11.68;;;;;;;;;;5067430;28;20052;-63
2021/03/30 07:55:11;;;;;;;35.72;12.57;;;;;;;;;;5064960;28;20045;-63
2021/03/30 07:57:52;;;;;;;37.72;12.63;;;;;;;;;;5040522;28;20034;-58
2021/03/30 08:00:33;;;;;;;39.90;15.00;;;;;;;;;;5046099;28;20129;-64
2021/03/30 08:03:02;;;;;;;41.92;14.70;;;;;;;;;;5049592;28;20033;-64
2021/03/30 08:05:28;;;;;;;39.17;13.85;;;;;;;;;;5048319;28;20037;-64
2021/03/30 08:07:54;;;;;;;38.30;13.02;;;;;;;;;;5046455;28;20068;-62
2021/03/30 08:10:25;;;;;;;31.73;11.90;;;;;;;;;;5045886;28;20029;-63
2021/03/30 08:12:51;;;;;;;41.55;13.88;;;;;;;;;;5060291;28;20076;-59
2021/03/30 08:15:40;;;;;;;41.63;12.85;;;;;;;;;;5065292;28;20033;-63
2021/03/30 08:18:08;;;;;;;39.13;12.93;;;;;;;;;;5059565;28;20089;-63
2021/03/30 08:20:50;;;;;;;37.83;12.93;;;;;;;;;;5066047;28;20035;-61
2021/03/30 08:23:21;;;;;;;35.20;11.68;;;;;;;;;;5062045;28;20048;-63
2021/03/30 08:25:52;;;;;;;34.22;11.50;;;;;;;;;;5068163;28;20048;-63
2021/03/30 08:28:37;;;;;;;37.65;12.57;;;;;;;;;;5048968;28;20041;-60
2021/03/30 08:31:03;;;;;;;36.28;12.60;;;;;;;;;;5048683;28;20033;-60
2021/03/30 08:33:35;;;;;;;32.92;11.73;;;;;;;;;;5058126;28;20055;-61
2021/03/30 08:36:18;;;;;;;38.35;13.00;;;;;;;;;;5046767;28;20060;-63
2021/03/30 08:38:46;;;;;;;39.42;13.40;;;;;;;;;;5056377;28;20080;-61
2021/03/30 08:41:12;;;;;;;35.40;11.70;;;;;;;;;;5064031;28;20071;-61
2021/03/30 08:43:38;;;;;;;44.08;13.75;;;;;;;;;;5050537;28;20028;-61
2021/03/30 08:46:06;;;;;;;38.03;14.43;;;;;;;;;;5062796;28;20052;-61
2021/03/30 08:48:34;;;;;;;47.67;14.15;;;;;;;;;;5059345;28;20051;-62
2021/03/30 08:51:00;;;;;;;44.07;14.60;;;;;;;;;;5063835;28;20041;-64
2021/03/30 08:53:30;;;;;;;50.15;14.65;;;;;;;;;;5056640;28;20055;-61
2021/03/30 08:55:57;;;;;;;33.45;11.95;;;;;;;;;;5048335;28;20025;-62
2021/03/30 08:58:28;;;;;;;34.97;11.82;;;;;;;;;;5069069;28;20064;-62
2021/03/30 09:00:55;;;;;;;34.75;12.52;;;;;;;;;;5086637;28;20040;-62
2021/03/30 09:03:26;;;;;;;40.58;13.65;;;;;;;;;;5076744;28;20049;-62
2021/03/30 09:05:53;;;;;;;34.35;12.55;;;;;;;;;;5054627;28;20036;-63
2021/03/30 09:08:39;;;;;;;38.53;13.13;;;;;;;;;;5047697;28;20053;-62
2021/03/30 09:11:15;;;;;;;33.67;12.38;;;;;;;;;;5068202;28;20040;-62
2021/03/30 09:14:00;;;;;;;37.10;12.25;;;;;;;;;;5064804;28;20085;-62
2021/03/30 09:16:26;;;;;;;32.63;12.40;;;;;;;;;;5086141;28;20068;-62
2021/03/30 09:19:07;;;;;;;36.85;11.55;;;;;;;;;;5064596;28;20032;-61
2021/03/30 09:21:34;;;;;;;36.65;12.77;;;;;;;;;;5067923;28;20055;-59
2021/03/30 09:24:25;;;;;;;27.83;11.15;;;;;;;;;;5063960;28;20117;-63
2021/03/30 09:26:51;;;;;;;41.40;13.52;;;;;;;;;;5046915;28;20052;-61
2021/03/30 09:29:18;;;;;;;35.47;12.25;;;;;;;;;;5049347;28;20040;-61
2021/03/30 09:31:44;;;;;;;30.00;10.98;;;;;;;;;;5085304;28;20041;-60
2021/03/30 09:34:10;;;;;;;37.22;12.40;;;;;;;;;;5063429;28;20040;-63
2021/03/30 09:36:44;;;;;;;35.88;12.52;;;;;;;;;;5051342;28;20064;-59
2021/03/30 09:39:16;;;;;;;28.13;12.02;;;;;;;;;;5044500;28;20032;-59
2021/03/30 09:41:43;;;;;;;30.67;11.20;;;;;;;;;;5062556;28;20037;-64
2021/03/30 09:44:10;;;;;;;33.17;12.55;;;;;;;;;;5063065;28;20040;-63
2021/03/30 09:46:36;;;;;;;37.15;12.32;;;;;;;;;;5074077;28;20044;-63
2021/03/30 09:49:04;;;;;;;34.88;12.43;;;;;;;;;;5065420;28;20043;-64
2021/03/30 09:51:31;;;;;;;34.05;12.63;;;;;;;;;;5046082;28;20045;-63
2021/03/30 09:53:59;;;;;;;33.58;11.80;;;;;;;;;;5044330;28;20037;-63
2021/03/30 09:56:28;;;;;;;35.80;12.63;;;;;;;;;;5053100;28;20052;-59
2021/03/30 09:58:55;;;;;;;29.05;11.15;;;;;;;;;;5063025;28;20053;-61
2021/03/30 10:01:21;;;;;;;35.22;12.15;;;;;;;;;;5060876;28;20041;-60
2021/03/30 10:03:47;;;;;;;37.05;12.68;;;;;;;;;;5065298;28;20033;-62
2021/03/30 10:06:17;;;;;;;29.88;11.75;;;;;;;;;;5052058;28;20107;-64
2021/03/30 10:08:43;;;;;;;28.70;10.57;;;;;;;;;;5042217;28;20044;-62
2021/03/30 10:11:10;;;;;;;30.17;11.38;;;;;;;;;;5044097;28;20056;-63
2021/03/30 10:13:37;;;;;;;33.33;11.50;;;;;;;;;;5043957;28;20034;-61
2021/03/30 10:16:06;;;;;;;32.00;11.77;;;;;;;;;;5061404;28;20074;-64
2021/03/30 10:18:32;;;;;;;27.88;10.23;;;;;;;;;;5064180;28;20044;-62
2021/03/30 10:20:58;;;;;;;29.58;10.43;;;;;;;;;;5075778;28;20033;-63
2021/03/30 10:23:29;;;;;;;30.50;11.02;;;;;;;;;;5044301;28;20033;-62
2021/03/30 10:25:56;;;;;;;23.33;9.23;;;;;;;;;;5053363;28;20037;-62
2021/03/30 10:28:27;;;;;;;25.73;9.52;;;;;;;;;;5076562;28;20118;-63
2021/03/30 10:30:57;;;;;;;28.90;10.27;;;;;;;;;;5063962;28;20036;-62
2021/03/30 10:33:34;;;;;;;28.50;10.98;;;;;;;;;;5044031;28;20045;-63
2021/03/30 10:36:00;;;;;;;28.80;9.65;;;;;;;;;;5043186;28;20052;-61
2021/03/30 10:38:26;;;;;;;29.10;10.30;;;;;;;;;;5059093;28;20059;-60
2021/03/30 10:41:02;;;;;;;31.17;10.43;;;;;;;;;;5063774;28;20048;-64
2021/03/30 10:43:30;;;;;;;29.10;10.88;;;;;;;;;;5059519;28;20048;-62
2021/03/30 10:45:56;;;;;;;26.00;8.90;;;;;;;;;;5048774;28;20029;-64
2021/03/30 10:48:22;;;;;;;28.88;9.50;;;;;;;;;;5047016;28;20045;-61
2021/03/30 10:50:49;;;;;;;24.35;9.18;;;;;;;;;;5065012;28;20040;-62
2021/03/30 10:53:25;;;;;;;25.98;9.32;;;;;;;;;;5050634;28;20041;-60
2021/03/30 10:55:51;;;;;;;29.02;8.38;;;;;;;;;;5043990;28;20045;-60
2021/03/30 10:58:18;;;;;;;29.10;9.70;;;;;;;;;;5041030;28;20044;-61
2021/03/30 11:00:45;;;;;;;37.58;11.80;;;;;;;;;;5042123;28;20049;-61
2021/03/30 11:03:13;;;;;;;31.77;10.88;;;;;;;;;;5041508;28;20030;-60
2021/03/30 11:05:39;;;;;;;32.83;10.65;;;;;;;;;;5042036;28;20033;-65
2021/03/30 11:08:05;;;;;;;25.35;9.10;;;;;;;;;;5042410;28;20052;-60
2021/03/30 11:10:34;;;;;;;26.30;8.48;;;;;;;;;;5065199;28;20052;-64
2021/03/30 11:13:13;;;;;;;23.00;9.27;;;;;;;;;;5049540;28;20041;-62
2021/03/30 11:15:39;;;;;;;27.67;10.82;;;;;;;;;;5067115;28;20041;-62
2021/03/30 11:18:06;;;;;;;29.23;9.45;;;;;;;;;;5062452;28;20033;-64
2021/03/30 11:20:32;;;;;;;27.92;8.98;;;;;;;;;;5046764;28;20126;-64
2021/03/30 11:23:00;;;;;;;37.38;12.02;;;;;;;;;;5045771;28;20045;-61
2021/03/30 11:25:26;;;;;;;34.88;11.32;;;;;;;;;;5048506;28;20045;-63
2021/03/30 11:27:57;;;;;;;33.33;11.73;;;;;;;;;;5045706;28;20034;-65
2021/03/30 11:30:25;;;;;;;43.55;11.88;;;;;;;;;;5041341;28;20049;-65
2021/03/30 11:33:05;;;;;;;32.47;11.90;;;;;;;;;;5044994;28;20034;-64
2021/03/30 11:35:36;;;;;;;34.58;11.10;;;;;;;;;;5052400;28;20037;-62
2021/03/30 11:38:06;;;;;;;39.28;11.32;;;;;;;;;;5046404;28;20038;-64
2021/03/30 11:40:32;;;;;;;28.92;10.20;;;;;;;;;;5054343;28;20041;-63
2021/03/30 11:42:58;;;;;;;27.05;9.85;;;;;;;;;;5064790;28;20114;-64
2021/03/30 11:45:25;;;;;;;31.65;12.00;;;;;;;;;;5061406;28;20025;-64
2021/03/30 11:47:51;;;;;;;28.27;11.23;;;;;;;;;;5066934;28;20049;-63
2021/03/30 11:50:17;;;;;;;32.10;10.98;;;;;;;;;;5057012;28;20129;-63
2021/03/30 11:52:44;;;;;;;27.98;9.77;;;;;;;;;;5044561;28;20057;-65
2021/03/30 11:55:11;;;;;;;28.17;10.20;;;;;;;;;;5043049;28;20088;-62
2021/03/30 11:57:37;;;;;;;28.58;9.77;;;;;;;;;;5046487;28;20037;-65
2021/03/30 12:00:04;;;;;;;35.35;11.02;;;;;;;;;;5043622;28;20124;-64
2021/03/30 12:02:30;;;;;;;27.90;10.80;;;;;;;;;;5047140;28;20087;-64
2021/03/30 12:04:56;;;;;;;31.42;10.50;;;;;;;;;;5059048;28;20045;-63
2021/03/30 12:07:22;;;;;;;30.80;10.35;;;;;;;;;;5045412;28;20044;-65
2021/03/30 12:09:49;;;;;;;33.15;11.80;;;;;;;;;;5035901;28;20033;-64
2021/03/30 12:12:15;;;;;;;35.05;10.88;;;;;;;;;;5060328;28;20039;-64
2021/03/30 12:14:45;;;;;;;25.90;8.63;;;;;;;;;;5065953;28;20027;-63
2021/03/30 12:17:11;;;;;;;29.48;10.55;;;;;;;;;;5045241;28;20057;-64
2021/03/30 12:19:37;;;;;;;27.40;10.30;;;;;;;;;;5045924;28;20053;-64
2021/03/30 12:22:04;;;;;;;31.27;10.10;;;;;;;;;;5040924;28;20041;-62
2021/03/30 12:24:30;;;;;;;27.98;10.38;;;;;;;;;;5048574;28;20045;-64
2021/03/30 12:26:56;;;;;;;29.08;10.45;;;;;;;;;;5051007;28;20057;-64
2021/03/30 12:29:22;;;;;;;29.45;10.27;;;;;;;;;;5044011;28;20037;-65
2021/03/30 12:31:48;;;;;;;30.52;10.85;;;;;;;;;;5042621;28;20103;-64
2021/03/30 12:34:15;;;;;;;27.42;9.85;;;;;;;;;;5045400;28;20044;-60
2021/03/30 12:36:41;;;;;;;28.33;10.40;;;;;;;;;;5041536;28;20037;-62
2021/03/30 12:39:07;;;;;;;31.20;10.85;;;;;;;;;;5044689;28;20044;-64
2021/03/30 12:41:33;;;;;;;36.53;12.32;;;;;;;;;;5053068;28;20110;-63
2021/03/30 12:44:23;;;;;;;33.75;11.50;;;;;;;;;;5045531;28;20045;-61
2021/03/30 12:46:50;;;;;;;29.55;9.65;;;;;;;;;;5041192;28;20109;-63
2021/03/30 12:49:16;;;;;;;31.77;11.32;;;;;;;;;;5045308;28;20037;-63
2021/03/30 12:51:42;;;;;;;31.40;11.05;;;;;;;;;;5042921;28;20033;-61
2021/03/30 12:54:08;;;;;;;25.98;9.55;;;;;;;;;;5045580;28;20069;-61
2021/03/30 12:56:34;;;;;;;33.10;10.57;;;;;;;;;;5045264;28;20025;-61
2021/03/30 12:59:00;;;;;;;30.40;11.15;;;;;;;;;;5041297;28;20097;-59
2021/03/30 13:01:26;;;;;;;27.58;9.55;;;;;;;;;;5045704;28;20062;-63
2021/03/30 13:03:59;;;;;;;23.15;8.75;;;;;;;;;;5042037;28;20106;-60
2021/03/30 13:06:25;;;;;;;23.02;7.65;;;;;;;;;;5044931;28;20065;-61
2021/03/30 13:08:51;;;;;;;25.65;8.23;;;;;;;;;;5042887;28;20048;-63
2021/03/30 13:11:17;;;;;;;22.50;8.25;;;;;;;;;;5044290;28;20118;-59
2021/03/30 13:13:44;;;;;;;25.45;9.35;;;;;;;;;;5043285;28;20049;-59
2021/03/30 13:16:10;;;;;;;27.17;8.93;;;;;;;;;;5043911;28;20029;-60
2021/03/30 13:18:38;;;;;;;27.25;9.93;;;;;;;;;;5042230;28;20044;-61
2021/03/30 13:21:07;;;;;;;25.92;8.85;;;;;;;;;;5044604;28;20081;-61
2021/03/30 13:23:40;;;;;;;26.05;9.50;;;;;;;;;;5041007;28;20041;-63
2021/03/30 13:26:06;;;;;;;24.10;8.73;;;;;;;;;;5062832;28;20028;-61
2021/03/30 13:28:32;;;;;;;28.98;9.52;;;;;;;;;;5060195;28;20037;-62
2021/03/30 13:31:00;;;;;;;26.67;10.05;;;;;;;;;;5064394;28;20053;-63
2021/03/30 13:33:33;;;;;;;23.85;8.93;;;;;;;;;;5059764;28;20041;-65
2021/03/30 13:36:00;;;;;;;28.88;9.85;;;;;;;;;;5061488;28;20029;-64
2021/03/30 13:38:27;;;;;;;22.40;9.10;;;;;;;;;;5042824;28;20098;-63
2021/03/30 13:40:55;;;;;;;30.73;10.25;;;;;;;;;;5035053;28;20038;-63
2021/03/30 13:43:21;;;;;;;28.75;8.98;;;;;;;;;;5003748;28;20030;-63
2021/03/30 13:45:47;;;;;;;26.55;9.63;;;;;;;;;;5016599;28;20041;-64
2021/03/30 13:48:13;;;;;;;26.50;8.65;;;;;;;;;;5025206;28;20041;-61
2021/03/30 13:50:39;;;;;;;23.85;9.52;;;;;;;;;;5020384;28;20037;-63
2021/03/30 13:53:07;;;;;;;27.83;9.35;;;;;;;;;;5023030;28;20052;-63
2021/03/30 13:55:33;;;;;;;21.20;8.85;;;;;;;;;;5019139;28;20030;-64
2021/03/30 13:57:59;;;;;;;26.45;9.43;;;;;;;;;;5023336;28;20041;-61
2021/03/30 14:00:25;;;;;;;26.75;8.93;;;;;;;;;;5026893;28;20061;-63
2021/03/30 14:02:52;;;;;;;31.95;10.05;;;;;;;;;;5043381;28;20119;-64
2021/03/30 14:05:18;;;;;;;25.20;9.45;;;;;;;;;;5033816;28;20041;-64
2021/03/30 14:07:44;;;;;;;27.67;10.48;;;;;;;;;;5024482;28;20112;-65
2021/03/30 14:10:11;;;;;;;26.10;10.48;;;;;;;;;;5033873;28;20062;-63
2021/03/30 14:12:42;;;;;;;26.27;10.75;;;;;;;;;;5003801;28;20046;-65
2021/03/30 14:15:12;;;;;;;26.88;9.60;;;;;;;;;;5001747;28;20117;-64
2021/03/30 14:17:40;;;;;;;26.45;9.18;;;;;;;;;;5023406;28;20037;-62
2021/03/30 14:20:07;;;;;;;25.33;8.33;;;;;;;;;;5023953;28;20034;-63
2021/03/30 14:22:35;;;;;;;26.40;8.57;;;;;;;;;;5020879;28;20057;-63
2021/03/30 14:25:17;;;;;;;25.95;8.75;;;;;;;;;;5017708;28;20049;-62
2021/03/30 14:27:44;;;;;;;30.98;9.45;;;;;;;;;;5020735;28;20042;-62
2021/03/30 14:30:11;;;;;;;22.70;8.38;;;;;;;;;;5023941;28;20033;-65
2021/03/30 14:32:37;;;;;;;21.13;7.28;;;;;;;;;;5012841;28;20037;-64